Time;durP1;ratioP1;P1;durP2;ratioP2;P2;SDS_P1;SDS_P2;PMS_P1;PMS_P2;Temp;Humidity;BMP_temperature;BMP_pressure;BME280_temperature;BME280_humidity;BME280_pressure;Samples;Min_cycle;Max_cycle;Signal;HPM_P1;HPM_P2
2021/06/20 00:00:25;;;;;;;43.35;31.60;;;22.80;99.90;;;;;;5015447;28;20036;-73
2021/06/20 00:02:52;;;;;;;37.67;31.20;;;22.90;99.90;;;;;;5015460;28;20018;-71
2021/06/20 00:05:22;;;;;;;42.50;33.25;;;22.60;99.90;;;;;;5016035;28;20501;-72
2021/06/20 00:07:48;;;;;;;40.58;31.60;;;22.70;99.90;;;;;;5020571;28;20044;-74
2021/06/20 00:10:17;;;;;;;39.08;30.25;;;22.80;99.90;;;;;;5010173;28;20391;-73
2021/06/20 00:12:43;;;;;;;39.72;28.98;;;22.90;99.90;;;;;;5018782;28;20061;-73
2021/06/20 00:15:12;;;;;;;36.88;29.70;;;22.90;99.90;;;;;;5019115;28;20888;-73
2021/06/20 00:17:39;;;;;;;39.83;30.13;;;22.90;99.90;;;;;;5014494;28;20030;-73
2021/06/20 00:20:07;;;;;;;46.10;32.35;;;23.00;99.90;;;;;;5016058;28;20402;-73
2021/06/20 00:22:33;;;;;;;44.03;31.30;;;23.00;99.90;;;;;;5016968;28;20033;-73
2021/06/20 00:24:59;;;;;;;42.80;30.77;;;23.00;99.90;;;;;;5014403;28;20033;-73
2021/06/20 00:27:24;;;;;;;42.00;33.50;;;23.00;99.90;;;;;;5013257;28;20033;-73
2021/06/20 00:29:50;;;;;;;51.55;33.15;;;23.00;99.90;;;;;;5011709;28;20026;-73
2021/06/20 00:32:16;;;;;;;38.47;29.38;;;23.00;99.90;;;;;;5015707;28;20497;-73
2021/06/20 00:34:42;;;;;;;39.15;30.17;;;23.00;99.90;;;;;;5011741;28;20033;-72
2021/06/20 00:37:07;;;;;;;38.03;29.90;;;23.00;99.90;;;;;;5014517;28;20566;-73
2021/06/20 00:39:33;;;;;;;42.85;31.83;;;23.00;99.90;;;;;;5013016;28;20029;-73
2021/06/20 00:41:59;;;;;;;48.78;33.58;;;23.00;99.90;;;;;;5015501;28;20029;-74
2021/06/20 00:44:25;;;;;;;59.22;36.22;;;23.00;99.90;;;;;;5018446;28;20038;-73
2021/06/20 00:46:51;;;;;;;46.42;33.28;;;23.00;99.90;;;;;;5015525;28;20026;-73
2021/06/20 00:49:17;;;;;;;58.47;37.08;;;23.00;99.90;;;;;;5012543;28;20037;-73
2021/06/20 00:51:42;;;;;;;48.92;34.33;;;23.00;99.90;;;;;;5017774;28;20034;-73
2021/06/20 00:54:08;;;;;;;43.15;30.88;;;23.00;99.90;;;;;;5014647;28;20024;-73
2021/06/20 00:56:34;;;;;;;41.33;31.20;;;22.90;99.90;;;;;;5021551;28;20026;-73
2021/06/20 00:59:03;;;;;;;44.83;32.97;;;23.00;99.90;;;;;;5025330;28;20387;-73
2021/06/20 01:01:33;;;;;;;41.22;30.83;;;23.00;99.90;;;;;;5016590;28;20479;-73
2021/06/20 01:03:59;;;;;;;60.67;32.08;;;23.00;99.90;;;;;;5015191;28;20021;-73
2021/06/20 01:06:27;;;;;;;38.45;27.70;;;22.90;99.90;;;;;;5018596;28;20033;-73
2021/06/20 01:08:53;;;;;;;39.88;29.48;;;22.90;99.90;;;;;;5022181;28;20021;-73
2021/06/20 01:11:20;;;;;;;38.42;28.25;;;22.90;99.90;;;;;;5015983;28;20044;-73
2021/06/20 01:13:47;;;;;;;33.00;26.67;;;22.90;99.90;;;;;;5016292;28;20109;-73
2021/06/20 01:16:14;;;;;;;42.42;30.70;;;23.00;99.90;;;;;;5017648;28;20513;-73
2021/06/20 01:18:40;;;;;;;48.75;34.05;;;22.90;99.90;;;;;;5024664;28;20111;-73
2021/06/20 01:21:08;;;;;;;53.30;37.25;;;22.90;99.90;;;;;;5017418;28;20033;-73
2021/06/20 01:23:34;;;;;;;55.38;37.72;;;22.90;99.90;;;;;;5020203;28;20028;-73
2021/06/20 01:26:00;;;;;;;59.00;35.20;;;23.00;99.90;;;;;;5018545;28;20551;-73
2021/06/20 01:28:28;;;;;;;48.90;34.22;;;23.00;99.90;;;;;;5017524;28;20474;-71
2021/06/20 01:31:00;;;;;;;52.80;36.95;;;22.90;99.90;;;;;;5013598;28;20113;-71
2021/06/20 01:33:27;;;;;;;55.90;37.30;;;22.90;99.90;;;;;;5018683;28;20022;-73
2021/06/20 01:35:54;;;;;;;56.40;40.72;;;22.90;99.90;;;;;;5013686;28;20038;-73
2021/06/20 01:38:20;;;;;;;64.72;42.03;;;22.90;99.90;;;;;;5026077;28;20109;-73
2021/06/20 01:40:46;;;;;;;68.45;44.28;;;22.90;99.90;;;;;;5016196;28;20080;-72
2021/06/20 01:43:12;;;;;;;69.43;45.10;;;22.90;99.90;;;;;;5017922;28;20431;-73
2021/06/20 01:45:39;;;;;;;61.58;46.33;;;23.00;99.90;;;;;;5018393;28;20025;-74
2021/06/20 01:48:07;;;;;;;59.20;42.35;;;22.90;99.90;;;;;;5019157;28;20029;-72
2021/06/20 01:50:33;;;;;;;56.28;41.55;;;23.00;99.90;;;;;;5014132;28;20072;-74
2021/06/20 01:53:11;;;;;;;80.65;47.50;;;22.90;99.90;;;;;;5020290;28;20028;-75
2021/06/20 01:55:39;;;;;;;61.20;43.85;;;22.90;99.90;;;;;;5019395;28;20034;-74
2021/06/20 01:58:06;;;;;;;50.00;37.92;;;23.00;99.90;;;;;;5019735;28;20466;-74
2021/06/20 02:00:33;;;;;;;50.33;34.47;;;22.90;99.90;;;;;;5017896;28;20036;-74
2021/06/20 02:03:22;;;;;;;43.15;32.40;;;22.80;99.90;;;;;;5017983;28;20037;-74
2021/06/20 02:05:49;;;;;;;42.53;31.85;;;22.70;99.90;;;;;;5019245;28;20474;-73
2021/06/20 02:08:19;;;;;;;36.83;26.77;;;22.80;99.90;;;;;;5019056;28;20474;-73
2021/06/20 02:10:55;;;;;;;39.63;27.30;;;22.70;99.90;;;;;;5018648;28;20483;-74
2021/06/20 02:13:27;;;;;;;33.78;25.65;;;22.80;99.90;;;;;;5015305;28;20443;-73
2021/06/20 02:15:53;;;;;;;43.53;29.40;;;22.70;99.90;;;;;;5016692;28;20466;-74
2021/06/20 02:18:20;;;;;;;37.15;27.27;;;22.70;99.90;;;;;;5018536;28;20049;-73
2021/06/20 02:20:46;;;;;;;46.67;34.13;;;22.70;99.90;;;;;;5014477;28;20026;-73
2021/06/20 02:23:12;;;;;;;63.30;37.67;;;22.70;99.90;;;;;;5014700;28;20550;-74
2021/06/20 02:25:38;;;;;;;41.10;31.10;;;22.70;99.90;;;;;;5016754;28;20033;-74
2021/06/20 02:28:04;;;;;;;48.85;35.20;;;22.70;99.90;;;;;;5014525;28;20025;-74
2021/06/20 02:30:30;;;;;;;73.30;43.90;;;22.70;99.90;;;;;;5013917;28;20432;-74
2021/06/20 02:32:56;;;;;;;70.32;45.70;;;22.70;99.90;;;;;;5015053;28;20069;-73
2021/06/20 02:35:22;;;;;;;66.47;44.22;;;22.60;99.90;;;;;;5021740;28;20388;-74
2021/06/20 02:37:49;;;;;;;76.35;47.08;;;22.60;99.90;;;;;;5018834;28;20391;-74
2021/06/20 02:40:16;;;;;;;74.93;49.13;;;22.60;99.90;;;;;;5014665;28;20037;-74
2021/06/20 02:42:43;;;;;;;76.82;49.20;;;22.50;99.90;;;;;;5017105;28;20029;-74
2021/06/20 02:45:11;;;;;;;89.35;49.92;;;22.50;99.90;;;;;;5021047;28;20014;-74
2021/06/20 02:47:37;;;;;;;77.55;48.15;;;22.50;99.90;;;;;;5017327;28;20036;-74
2021/06/20 02:50:05;;;;;;;65.13;43.45;;;22.50;99.90;;;;;;5018219;28;20410;-75
2021/06/20 02:52:31;;;;;;;85.47;49.97;;;22.50;99.90;;;;;;5017045;28;20028;-74
2021/06/20 02:54:59;;;;;;;88.03;53.75;;;22.50;99.90;;;;;;5020286;28;20037;-74
2021/06/20 02:57:28;;;;;;;69.50;45.55;;;22.40;99.90;;;;;;5014231;28;20105;-74
2021/06/20 02:59:54;;;;;;;71.72;46.78;;;22.40;99.90;;;;;;5020307;28;20033;-74
2021/06/20 03:02:20;;;;;;;79.72;47.13;;;22.40;99.90;;;;;;5018535;28;20092;-74
2021/06/20 03:04:47;;;;;;;91.43;53.05;;;22.40;99.90;;;;;;5013562;28;20049;-74
2021/06/20 03:07:13;;;;;;;94.10;56.50;;;22.40;99.90;;;;;;5014030;28;20037;-74
2021/06/20 03:09:39;;;;;;;102.15;56.95;;;22.30;99.90;;;;;;5018476;28;20057;-74
2021/06/20 03:12:06;;;;;;;91.05;54.20;;;22.30;99.90;;;;;;5018950;28;20065;-75
2021/06/20 03:14:33;;;;;;;87.32;55.15;;;22.40;99.90;;;;;;5026144;28;20022;-74
2021/06/20 03:16:59;;;;;;;103.20;57.75;;;22.30;99.90;;;;;;5020743;28;20474;-74
2021/06/20 03:19:24;;;;;;;108.75;60.78;;;22.20;99.90;;;;;;5021418;28;20071;-74
2021/06/20 03:21:51;;;;;;;90.50;54.35;;;22.30;99.90;;;;;;5017211;28;20018;-74
2021/06/20 03:24:17;;;;;;;88.70;55.72;;;22.30;99.90;;;;;;5016839;28;20081;-74
2021/06/20 03:26:43;;;;;;;104.93;60.90;;;22.30;99.90;;;;;;5017748;28;20442;-74
2021/06/20 03:29:08;;;;;;;112.82;62.00;;;22.30;99.90;;;;;;5013555;28;20032;-74
2021/06/20 03:31:35;;;;;;;116.25;62.50;;;22.20;99.90;;;;;;5021401;28;20033;-74
2021/06/20 03:34:01;;;;;;;112.80;62.75;;;22.20;99.90;;;;;;5017659;28;20022;-74
2021/06/20 03:36:28;;;;;;;92.85;56.38;;;22.10;99.90;;;;;;5018060;28;20038;-71
2021/06/20 03:38:54;;;;;;;90.63;53.55;;;22.10;99.90;;;;;;5021722;28;20536;-74
2021/06/20 03:41:20;;;;;;;102.90;58.95;;;22.10;99.90;;;;;;5015257;28;20033;-73
2021/06/20 03:43:45;;;;;;;101.22;56.60;;;21.90;99.90;;;;;;5013087;28;20145;-74
2021/06/20 03:46:11;;;;;;;97.03;56.30;;;21.90;99.90;;;;;;5014669;28;20032;-72
2021/06/20 03:48:38;;;;;;;92.07;55.67;;;22.00;99.90;;;;;;5015881;28;20471;-71
2021/06/20 03:51:04;;;;;;;90.10;51.78;;;21.90;99.90;;;;;;5015492;28;20037;-72
2021/06/20 03:53:30;;;;;;;88.25;51.83;;;21.80;99.90;;;;;;5011974;28;20046;-74
2021/06/20 03:55:56;;;;;;;90.80;49.22;;;21.80;99.90;;;;;;5013221;28;20022;-72
2021/06/20 03:58:22;;;;;;;69.25;43.20;;;21.80;99.90;;;;;;5013826;28;20135;-73
2021/06/20 04:00:48;;;;;;;68.43;43.28;;;21.80;99.90;;;;;;5012667;28;20486;-74
2021/06/20 04:03:14;;;;;;;78.07;46.05;;;21.70;99.90;;;;;;5013710;28;20114;-74
2021/06/20 04:05:39;;;;;;;77.53;45.47;;;21.70;99.90;;;;;;5010878;28;20116;-74
2021/06/20 04:08:06;;;;;;;80.05;46.05;;;21.60;99.90;;;;;;5012823;28;20034;-73
2021/06/20 04:10:32;;;;;;;69.13;40.75;;;21.60;99.90;;;;;;5011454;28;20081;-74
2021/06/20 04:12:59;;;;;;;62.92;41.35;;;21.60;99.90;;;;;;5014797;28;20037;-73
2021/06/20 04:15:25;;;;;;;63.50;38.80;;;21.50;99.90;;;;;;5013152;28;20475;-73
2021/06/20 04:17:51;;;;;;;58.17;37.00;;;21.60;99.90;;;;;;5015473;28;20386;-74
2021/06/20 04:20:17;;;;;;;60.10;35.85;;;21.50;99.90;;;;;;5013103;28;20022;-74
2021/06/20 04:22:43;;;;;;;61.50;38.08;;;21.50;99.90;;;;;;5011263;28;20618;-74
2021/06/20 04:25:14;;;;;;;57.67;35.85;;;21.60;99.90;;;;;;5012691;28;20029;-74
2021/06/20 04:27:45;;;;;;;57.17;37.25;;;21.60;99.90;;;;;;5014973;28;20399;-74
2021/06/20 04:30:13;;;;;;;59.53;37.38;;;21.60;99.90;;;;;;5011084;28;20021;-74
2021/06/20 04:32:40;;;;;;;53.83;34.88;;;21.60;99.90;;;;;;5015014;28;20026;-74
2021/06/20 04:35:06;;;;;;;50.00;33.22;;;21.50;99.90;;;;;;5015830;28;20537;-74
2021/06/20 04:37:32;;;;;;;52.58;34.50;;;21.50;99.90;;;;;;5018857;28;20041;-73
2021/06/20 04:39:58;;;;;;;50.38;33.75;;;21.50;99.90;;;;;;5019906;28;20030;-73
2021/06/20 04:42:32;;;;;;;46.35;31.10;;;21.50;99.90;;;;;;5018142;28;20458;-74
2021/06/20 04:44:59;;;;;;;52.83;33.20;;;21.40;99.90;;;;;;5017606;28;20049;-71
2021/06/20 04:47:26;;;;;;;48.42;32.75;;;21.30;99.90;;;;;;5016604;28;20017;-74
2021/06/20 04:49:52;;;;;;;47.13;30.85;;;21.40;99.90;;;;;;5013088;28;20161;-74
2021/06/20 04:52:18;;;;;;;40.35;28.05;;;21.40;99.90;;;;;;5017513;28;20022;-74
2021/06/20 04:54:51;;;;;;;43.47;31.38;;;21.40;99.90;;;;;;5023158;28;20055;-74
2021/06/20 04:57:25;;;;;;;37.08;26.58;;;21.50;99.90;;;;;;5021112;28;20121;-75
2021/06/20 04:59:53;;;;;;;39.80;27.83;;;21.40;99.90;;;;;;5016202;28;20018;-74
2021/06/20 05:02:19;;;;;;;32.50;24.80;;;21.30;99.90;;;;;;5016639;28;20133;-74
2021/06/20 05:04:45;;;;;;;36.15;25.38;;;21.20;99.90;;;;;;5014817;28;20026;-73
2021/06/20 05:07:12;;;;;;;36.42;24.90;;;21.40;99.90;;;;;;5015728;28;20529;-75
2021/06/20 05:09:38;;;;;;;31.08;23.23;;;21.40;99.90;;;;;;5013356;28;20030;-74
2021/06/20 05:12:07;;;;;;;36.08;24.42;;;21.30;99.90;;;;;;5018022;28;20538;-74
2021/06/20 05:14:33;;;;;;;34.33;23.48;;;21.50;99.90;;;;;;5017689;28;20034;-73
2021/06/20 05:16:59;;;;;;;32.90;23.17;;;21.40;99.90;;;;;;5017464;28;20042;-73
2021/06/20 05:19:25;;;;;;;38.78;26.02;;;21.50;99.90;;;;;;5015231;28;20022;-73
2021/06/20 05:21:51;;;;;;;33.78;23.02;;;21.50;99.90;;;;;;5017906;28;20387;-73
2021/06/20 05:24:16;;;;;;;36.80;24.33;;;21.40;99.90;;;;;;5014977;28;20390;-74
2021/06/20 05:26:42;;;;;;;40.00;25.15;;;21.50;99.90;;;;;;5022683;28;20033;-74
2021/06/20 05:29:08;;;;;;;29.98;22.35;;;21.40;99.90;;;;;;5014725;28;20026;-74
2021/06/20 05:31:33;;;;;;;29.92;23.08;;;21.40;99.90;;;;;;5014374;28;20030;-74
2021/06/20 05:33:59;;;;;;;36.50;25.08;;;21.50;99.90;;;;;;5014264;28;20033;-74
2021/06/20 05:36:25;;;;;;;36.13;26.88;;;21.60;99.90;;;;;;5016968;28;20058;-75
2021/06/20 05:38:50;;;;;;;32.63;22.00;;;21.70;99.90;;;;;;5014110;28;20033;-73
2021/06/20 05:41:16;;;;;;;29.92;23.40;;;21.70;99.90;;;;;;5016656;28;20022;-74
2021/06/20 05:43:41;;;;;;;29.27;22.23;;;21.60;99.90;;;;;;5017351;28;20057;-74
2021/06/20 05:46:07;;;;;;;31.95;23.75;;;21.60;99.90;;;;;;5014594;28;20570;-74
2021/06/20 05:48:33;;;;;;;28.55;21.73;;;21.60;99.90;;;;;;5021134;28;20040;-74
2021/06/20 05:50:59;;;;;;;28.23;21.42;;;21.40;99.90;;;;;;5020572;28;20026;-72
2021/06/20 05:53:24;;;;;;;21.27;16.38;;;21.50;99.90;;;;;;5019504;28;20532;-73
2021/06/20 05:55:50;;;;;;;26.13;18.58;;;21.50;99.90;;;;;;5021475;28;20064;-73
2021/06/20 05:58:16;;;;;;;27.48;18.75;;;21.30;99.90;;;;;;5019647;28;20029;-74
2021/06/20 06:00:42;;;;;;;24.33;18.52;;;21.40;99.90;;;;;;5021036;28;20189;-74
2021/06/20 06:03:08;;;;;;;31.55;20.27;;;21.50;99.90;;;;;;5017574;28;20034;-74
2021/06/20 06:05:33;;;;;;;20.70;17.02;;;21.60;99.90;;;;;;5021662;28;20538;-75
2021/06/20 06:08:00;;;;;;;23.27;18.45;;;21.70;99.90;;;;;;5017708;28;20025;-74
2021/06/20 06:10:27;;;;;;;27.90;21.23;;;21.70;99.90;;;;;;5014344;28;20430;-74
2021/06/20 06:12:53;;;;;;;27.67;21.38;;;21.80;99.90;;;;;;5020923;28;20034;-74
2021/06/20 06:15:20;;;;;;;24.52;18.88;;;21.80;99.90;;;;;;5023670;28;20040;-74
2021/06/20 06:17:46;;;;;;;28.30;21.50;;;21.90;99.90;;;;;;5024606;28;20053;-74
2021/06/20 06:20:14;;;;;;;24.30;18.52;;;21.80;99.90;;;;;;5018629;28;20049;-74
2021/06/20 06:22:39;;;;;;;21.50;16.88;;;21.70;99.90;;;;;;5020458;28;20018;-74
2021/06/20 06:25:05;;;;;;;24.35;18.17;;;21.80;99.90;;;;;;5021603;28;20403;-74
2021/06/20 06:27:31;;;;;;;23.38;17.15;;;21.90;99.90;;;;;;5015086;28;20484;-73
2021/06/20 06:29:57;;;;;;;24.60;19.35;;;21.70;99.90;;;;;;5018815;28;20037;-74
2021/06/20 06:32:22;;;;;;;25.15;18.70;;;21.80;99.90;;;;;;5019001;28;20081;-74
2021/06/20 06:34:48;;;;;;;27.65;18.58;;;21.80;99.90;;;;;;5024772;28;20061;-75
2021/06/20 06:37:14;;;;;;;20.40;15.50;;;21.90;99.90;;;;;;5015150;28;20032;-75
2021/06/20 06:39:41;;;;;;;21.77;16.98;;;22.00;99.90;;;;;;5018210;28;20106;-74
2021/06/20 06:42:07;;;;;;;21.00;16.23;;;21.90;99.90;;;;;;5015152;28;20022;-74
2021/06/20 06:44:32;;;;;;;22.60;15.60;;;22.00;99.90;;;;;;5021383;28;20025;-73
2021/06/20 06:46:58;;;;;;;19.40;16.63;;;22.10;99.90;;;;;;5016817;28;20045;-75
2021/06/20 06:49:24;;;;;;;21.58;16.27;;;22.30;99.90;;;;;;5014977;28;20017;-74
2021/06/20 06:51:50;;;;;;;18.63;16.48;;;22.40;99.90;;;;;;5019357;28;20029;-73
2021/06/20 06:54:19;;;;;;;19.38;14.10;;;22.20;99.90;;;;;;5021105;28;20029;-74
2021/06/20 06:56:46;;;;;;;17.80;13.48;;;22.30;99.90;;;;;;5017782;28;20437;-75
2021/06/20 06:59:12;;;;;;;17.95;14.15;;;22.40;99.90;;;;;;5015037;28;20014;-74
2021/06/20 07:01:39;;;;;;;19.55;13.52;;;22.60;99.90;;;;;;5021426;28;20049;-75
2021/06/20 07:04:04;;;;;;;18.27;14.63;;;22.60;99.90;;;;;;5019409;28;20160;-73
2021/06/20 07:06:30;;;;;;;19.98;13.95;;;22.70;99.90;;;;;;5017972;28;20521;-75
2021/06/20 07:08:55;;;;;;;18.67;12.95;;;22.70;99.90;;;;;;5019860;28;20116;-74
2021/06/20 07:11:22;;;;;;;14.90;13.30;;;22.90;99.90;;;;;;5016514;28;20108;-74
2021/06/20 07:13:47;;;;;;;18.45;13.85;;;23.00;99.90;;;;;;5020767;28;20467;-75
2021/06/20 07:16:13;;;;;;;17.67;12.77;;;23.00;99.90;;;;;;5016360;28;20037;-73
2021/06/20 07:18:39;;;;;;;17.85;12.68;;;23.00;99.90;;;;;;5017164;28;20068;-74
2021/06/20 07:21:05;;;;;;;20.58;12.32;;;23.00;99.90;;;;;;5019826;28;20022;-75
2021/06/20 07:23:31;;;;;;;17.15;12.57;;;22.90;99.90;;;;;;5015190;28;20036;-75
2021/06/20 07:25:57;;;;;;;15.48;12.27;;;23.00;99.90;;;;;;5015579;28;20038;-75
2021/06/20 07:28:23;;;;;;;13.80;12.13;;;23.10;99.90;;;;;;5020634;28;20021;-75
2021/06/20 07:30:49;;;;;;;15.57;12.77;;;23.00;99.90;;;;;;5008242;28;20029;-76
2021/06/20 07:33:20;;;;;;;12.90;10.73;;;23.00;99.90;;;;;;5017083;28;20025;-75
2021/06/20 07:35:51;;;;;;;10.55;9.38;;;23.00;99.90;;;;;;5011149;28;20033;-75
2021/06/20 07:38:19;;;;;;;10.07;9.00;;;23.10;99.90;;;;;;5017503;28;20090;-75
2021/06/20 07:40:45;;;;;;;13.43;8.82;;;23.10;99.90;;;;;;5015002;28;20116;-77
2021/06/20 07:43:11;;;;;;;9.23;8.20;;;23.40;99.90;;;;;;5012915;28;20054;-74
2021/06/20 07:45:37;;;;;;;8.65;7.55;;;23.40;99.90;;;;;;5012177;28;20065;-76
2021/06/20 07:48:06;;;;;;;8.82;6.65;;;23.50;99.90;;;;;;5018331;28;20121;-76
2021/06/20 07:50:33;;;;;;;8.98;5.93;;;23.70;99.90;;;;;;5015012;28;20025;-77
2021/06/20 07:52:59;;;;;;;8.35;6.40;;;23.80;99.90;;;;;;5016500;28;20030;-77
2021/06/20 07:55:24;;;;;;;7.15;5.82;;;23.70;99.90;;;;;;5014059;28;20437;-77
2021/06/20 07:57:50;;;;;;;7.50;5.10;;;23.80;99.90;;;;;;5017386;28;20032;-77
2021/06/20 08:00:16;;;;;;;8.35;5.55;;;23.80;99.90;;;;;;5023522;28;20032;-77
2021/06/20 08:02:42;;;;;;;5.85;4.72;;;23.90;99.90;;;;;;5019395;28;20018;-76
2021/06/20 08:05:09;;;;;;;5.43;4.72;;;23.80;99.90;;;;;;5012043;28;20034;-78
2021/06/20 08:07:34;;;;;;;5.20;4.35;;;23.80;99.90;;;;;;5017629;28;20022;-77
2021/06/20 08:10:00;;;;;;;4.78;4.32;;;23.90;99.90;;;;;;5013797;28;20050;-75
2021/06/20 08:12:26;;;;;;;3.88;3.58;;;24.00;99.90;;;;;;5012975;28;20030;-78
2021/06/20 08:14:52;;;;;;;5.07;3.72;;;23.90;99.90;;;;;;5013252;28;20037;-78
2021/06/20 08:17:18;;;;;;;5.78;3.83;;;23.90;99.90;;;;;;5016966;28;20025;-77
2021/06/20 08:19:44;;;;;;;4.60;3.70;;;24.00;99.90;;;;;;5012987;28;20536;-76
2021/06/20 08:22:10;;;;;;;3.42;2.63;;;24.00;99.90;;;;;;5015715;28;20045;-74
2021/06/20 08:24:37;;;;;;;6.95;3.70;;;23.70;99.90;;;;;;5012776;28;20586;-72
2021/06/20 08:27:04;;;;;;;3.88;3.35;;;23.80;99.90;;;;;;5016622;28;20029;-77
2021/06/20 08:29:30;;;;;;;4.90;3.13;;;23.70;99.90;;;;;;5009813;28;20021;-73
2021/06/20 08:31:55;;;;;;;3.72;3.25;;;23.50;99.90;;;;;;5015356;28;20216;-72
2021/06/20 08:34:21;;;;;;;3.50;3.20;;;23.60;99.90;;;;;;5018749;28;20075;-73
2021/06/20 08:36:47;;;;;;;3.78;3.42;;;23.80;99.90;;;;;;5014019;28;20084;-72
2021/06/20 08:39:13;;;;;;;4.53;3.35;;;23.90;99.90;;;;;;5015732;28;20112;-72
2021/06/20 08:41:41;;;;;;;3.08;2.67;;;24.00;99.90;;;;;;5013430;28;20038;-72
2021/06/20 08:44:19;;;;;;;3.05;2.83;;;24.10;99.90;;;;;;5015623;28;20022;-73
2021/06/20 08:46:45;;;;;;;3.33;2.83;;;24.40;99.90;;;;;;5013006;28;20080;-73
2021/06/20 08:49:11;;;;;;;5.72;2.80;;;24.50;99.90;;;;;;5014662;28;20025;-74
2021/06/20 08:51:39;;;;;;;2.38;2.17;;;24.50;99.90;;;;;;5011619;28;20084;-74
2021/06/20 08:54:05;;;;;;;4.15;2.13;;;24.80;99.90;;;;;;5016413;28;20495;-72
2021/06/20 08:56:31;;;;;;;2.85;2.33;;;24.90;99.90;;;;;;5014541;28;20437;-72
2021/06/20 08:58:57;;;;;;;3.15;2.08;;;24.90;99.90;;;;;;5017667;28;20034;-74
2021/06/20 09:01:24;;;;;;;2.50;2.30;;;25.10;99.90;;;;;;5018421;28;20037;-78
2021/06/20 09:03:49;;;;;;;5.70;2.10;;;25.10;99.90;;;;;;5016704;28;20014;-80
2021/06/20 09:06:20;;;;;;;3.15;1.67;;;25.00;99.90;;;;;;5016236;28;20036;-79
2021/06/20 09:08:47;;;;;;;2.65;1.80;;;25.10;99.90;;;;;;5012322;28;20022;-78
2021/06/20 09:11:26;;;;;;;2.65;1.92;;;25.10;99.90;;;;;;5014062;28;20041;-75
2021/06/20 09:14:05;;;;;;;2.08;1.90;;;25.30;99.90;;;;;;5011856;28;20029;-80
2021/06/20 09:16:31;;;;;;;2.35;1.60;;;25.50;99.90;;;;;;5017213;28;20068;-78
2021/06/20 09:18:57;;;;;;;3.17;1.90;;;25.40;99.90;;;;;;5023395;28;20037;-77
2021/06/20 09:21:25;;;;;;;1.90;1.80;;;25.40;99.90;;;;;;5021666;28;20116;-77
2021/06/20 09:23:56;;;;;;;1.92;1.83;;;25.60;99.90;;;;;;5025079;28;20408;-80
2021/06/20 09:26:52;;;;;;;3.35;1.88;;;25.50;99.90;;;;;;5019695;28;20036;-80
2021/06/20 09:29:34;;;;;;;2.88;2.10;;;25.50;99.90;;;;;;5006696;28;20495;-79
2021/06/20 09:32:03;;;;;;;2.83;1.65;;;25.60;99.90;;;;;;5022556;28;20535;-78
2021/06/20 09:34:39;;;;;;;1.88;1.55;;;25.80;99.90;;;;;;5019850;28;20105;-79
2021/06/20 09:37:04;;;;;;;2.58;1.50;;;25.90;99.90;;;;;;5016751;28;20054;-81
2021/06/20 09:39:31;;;;;;;2.15;1.58;;;26.10;99.90;;;;;;5021214;28;20432;-80
2021/06/20 09:42:03;;;;;;;1.90;1.52;;;26.00;99.90;;;;;;5023904;28;20022;-81
2021/06/20 09:44:39;;;;;;;2.38;1.88;;;26.20;99.90;;;;;;5021094;28;20159;-79
2021/06/20 09:47:07;;;;;;;1.83;1.73;;;25.90;99.90;;;;;;5018553;28;20030;-72
2021/06/20 09:49:33;;;;;;;2.60;1.50;;;25.80;99.90;;;;;;5013762;28;20225;-73
2021/06/20 09:52:00;;;;;;;1.95;1.30;;;26.10;99.90;;;;;;5021307;28;20130;-72
2021/06/20 09:54:28;;;;;;;1.88;1.35;;;26.00;99.90;;;;;;5017817;28;20735;-71
2021/06/20 09:56:54;;;;;;;1.35;1.30;;;26.00;99.70;;;;;;5019268;28;20042;-81
2021/06/20 09:59:27;;;;;;;1.40;1.20;;;26.20;99.30;;;;;;5023978;28;20022;-81
2021/06/20 10:01:52;;;;;;;3.65;1.38;;;26.20;99.90;;;;;;5016207;28;20479;-80
2021/06/20 10:04:19;;;;;;;3.35;1.70;;;26.10;98.90;;;;;;5024078;28;20018;-80
2021/06/20 10:06:45;;;;;;;5.63;1.60;;;26.00;99.60;;;;;;5019976;28;20025;-78
2021/06/20 10:09:11;;;;;;;1.50;1.25;;;26.10;99.60;;;;;;5015566;28;20026;-79
2021/06/20 10:11:36;;;;;;;1.60;1.10;;;26.10;99.90;;;;;;5016348;28;20049;-74
2021/06/20 10:14:02;;;;;;;1.45;1.35;;;26.10;99.60;;;;;;5019120;28;20064;-80
2021/06/20 10:16:33;;;;;;;1.27;0.95;;;26.10;99.90;;;;;;5017694;28;20030;-79
2021/06/20 10:19:17;;;;;;;2.05;1.33;;;26.00;99.40;;;;;;5015827;28;20022;-78
2021/06/20 10:21:57;;;;;;;2.35;1.30;;;25.90;99.90;;;;;;5017963;28;20018;-72
2021/06/20 10:24:23;;;;;;;2.72;1.15;;;26.10;99.90;;;;;;5022582;28;20033;-79
2021/06/20 10:26:51;;;;;;;1.45;1.23;;;26.10;99.90;;;;;;5016391;28;20037;-80
2021/06/20 10:29:29;;;;;;;3.40;1.30;;;25.80;99.30;;;;;;5014694;28;20032;-79
2021/06/20 10:31:57;;;;;;;2.80;1.10;;;25.70;99.90;;;;;;5018120;28;20034;-78
2021/06/20 10:34:28;;;;;;;1.33;1.23;;;25.70;99.90;;;;;;5022885;28;20057;-80
2021/06/20 10:37:02;;;;;;;3.28;1.13;;;25.50;99.20;;;;;;5016882;28;20197;-77
2021/06/20 10:39:28;;;;;;;2.65;1.20;;;25.70;99.90;;;;;;5021149;28;20036;-78
2021/06/20 10:42:04;;;;;;;1.35;0.90;;;25.70;99.90;;;;;;5017913;28;20148;-80
2021/06/20 10:44:42;;;;;;;2.33;1.20;;;25.50;99.10;;;;;;5022249;28;20025;-78
2021/06/20 10:47:08;;;;;;;1.08;1.00;;;25.60;99.90;;;;;;5013537;28;20037;-80
2021/06/20 10:49:34;;;;;;;0.70;0.70;;;25.70;99.80;;;;;;5012008;28;20022;-81
2021/06/20 10:51:59;;;;;;;0.95;0.88;;;25.70;99.80;;;;;;5012954;28;20542;-80
2021/06/20 10:54:27;;;;;;;1.63;1.10;;;25.70;99.40;;;;;;5012823;28;20072;-81
2021/06/20 10:56:58;;;;;;;4.95;1.00;;;25.80;99.30;;;;;;4998660;28;20041;-80
2021/06/20 10:59:24;;;;;;;1.65;1.35;;;25.90;99.40;;;;;;5020823;28;20045;-81
2021/06/20 11:01:50;;;;;;;1.10;0.88;;;25.70;99.30;;;;;;5015124;28;20467;-80
2021/06/20 11:04:16;;;;;;;2.47;1.00;;;25.60;99.70;;;;;;5018005;28;20386;-82
2021/06/20 11:06:55;;;;;;;0.65;0.65;;;25.40;98.80;;;;;;5015928;28;20374;-80
2021/06/20 11:09:22;;;;;;;1.00;0.90;;;25.50;98.60;;;;;;5018319;28;20441;-81
2021/06/20 11:12:02;;;;;;;2.33;0.80;;;25.60;99.80;;;;;;5010450;28;20022;-79
2021/06/20 11:14:28;;;;;;;1.23;0.75;;;25.80;98.50;;;;;;5015268;28;20605;-79
2021/06/20 11:16:53;;;;;;;2.10;1.00;;;25.70;98.00;;;;;;5015711;28;20117;-78
2021/06/20 11:19:24;;;;;;;2.20;0.90;;;25.60;98.70;;;;;;5017425;28;20394;-80
2021/06/20 11:22:08;;;;;;;1.40;1.10;;;25.80;99.40;;;;;;5013400;28;20132;-80
2021/06/20 11:24:36;;;;;;;1.25;0.93;;;25.90;99.00;;;;;;5019514;28;20022;-81
2021/06/20 11:27:05;;;;;;;1.70;1.30;;;26.00;99.50;;;;;;5017463;28;20026;-79
2021/06/20 11:29:51;;;;;;;3.05;1.20;;;26.00;98.40;;;;;;5016188;28;20033;-77
2021/06/20 11:32:21;;;;;;;1.98;1.00;;;26.00;98.80;;;;;;5025920;28;20048;-81
2021/06/20 11:34:52;;;;;;;1.20;1.10;;;25.80;98.40;;;;;;5018666;28;20029;-78
2021/06/20 11:37:20;;;;;;;3.55;1.02;;;26.10;98.80;;;;;;5016944;28;20108;-72
2021/06/20 11:39:48;;;;;;;3.38;1.10;;;26.50;99.50;;;;;;5014446;28;20018;-81
2021/06/20 11:42:25;;;;;;;4.68;1.00;;;26.70;97.70;;;;;;5019785;28;20022;-80
2021/06/20 11:45:14;;;;;;;1.77;1.20;;;26.60;97.40;;;;;;5027274;28;20044;-80
2021/06/20 11:47:46;;;;;;;1.42;1.17;;;26.70;98.30;;;;;;5019279;28;20478;-80
2021/06/20 11:50:17;;;;;;;2.50;1.08;;;26.80;98.30;;;;;;5014227;28;20100;-72
2021/06/20 11:52:46;;;;;;;3.13;1.00;;;27.10;97.40;;;;;;5013223;28;20068;-79
2021/06/20 11:55:18;;;;;;;4.95;1.10;;;27.20;96.80;;;;;;5018802;28;20475;-80
2021/06/20 11:57:45;;;;;;;1.20;1.10;;;26.90;97.20;;;;;;5014291;28;20044;-80
2021/06/20 12:00:16;;;;;;;1.65;1.55;;;26.80;96.60;;;;;;5015054;28;20029;-79
2021/06/20 12:02:44;;;;;;;3.47;1.17;;;26.90;97.80;;;;;;5009577;28;20040;-80
2021/06/20 12:05:16;;;;;;;2.85;1.00;;;26.90;97.60;;;;;;5011425;28;20053;-83
2021/06/20 12:07:43;;;;;;;1.38;1.27;;;26.40;97.30;;;;;;5013872;28;20046;-80
2021/06/20 12:10:13;;;;;;;2.67;1.33;;;26.10;97.10;;;;;;5013038;28;20029;-78
2021/06/20 12:12:41;;;;;;;1.45;1.08;;;26.10;98.80;;;;;;5014071;28;20022;-80
2021/06/20 12:15:07;;;;;;;3.15;1.23;;;26.20;97.00;;;;;;5013869;28;20165;-78
2021/06/20 12:17:33;;;;;;;2.35;1.00;;;26.10;97.70;;;;;;5015724;28;20310;-75
2021/06/20 12:19:59;;;;;;;2.85;1.30;;;25.90;97.00;;;;;;5011330;28;20034;-79
2021/06/20 12:22:25;;;;;;;2.05;1.33;;;25.60;97.00;;;;;;5013307;28;20017;-77
2021/06/20 12:25:00;;;;;;;2.00;1.25;;;25.60;98.50;;;;;;5014161;28;20044;-81
2021/06/20 12:27:37;;;;;;;2.60;1.40;;;25.70;98.80;;;;;;5012552;28;20152;-75
2021/06/20 12:30:21;;;;;;;5.93;1.40;;;25.60;98.50;;;;;;5013824;28;20026;-77
2021/06/20 12:32:49;;;;;;;1.88;1.20;;;25.20;97.90;;;;;;5013516;28;20046;-78
2021/06/20 12:35:22;;;;;;;1.83;1.70;;;25.30;98.00;;;;;;5012170;28;20030;-79